Time;durP1;ratioP1;P1;durP2;ratioP2;P2;SDS_P1;SDS_P2;PMS_P1;PMS_P2;Temp;Humidity;BMP_temperature;BMP_pressure;BME280_temperature;BME280_humidity;BME280_pressure;Samples;Min_cycle;Max_cycle;Signal;HPM_P1;HPM_P2
2022/09/11 00:02:29;;;;;;;6.40;3.53;;;;;;;;;;6244072;28;20049;-70
2022/09/11 00:05:31;;;;;;;7.88;3.58;;;;;;;;;;6243806;28;20320;-67
2022/09/11 00:08:33;;;;;;;9.15;3.65;;;;;;;;;;6243306;28;20290;-66
2022/09/11 00:11:39;;;;;;;6.45;3.20;;;;;;;;;;6238401;28;20096;-67
2022/09/11 00:14:41;;;;;;;7.45;3.75;;;;;;;;;;6241333;28;20050;-67
2022/09/11 00:17:44;;;;;;;7.88;4.40;;;;;;;;;;6244739;28;20056;-67
2022/09/11 00:20:48;;;;;;;7.03;4.20;;;;;;;;;;6246149;28;20103;-67
2022/09/11 00:23:50;;;;;;;5.63;3.80;;;;;;;;;;6244138;28;20046;-65
2022/09/11 00:26:52;;;;;;;7.85;3.97;;;;;;;;;;6241596;28;20067;-66
2022/09/11 00:29:53;;;;;;;25.17;5.03;;;;;;;;;;6242239;28;20053;-66
2022/09/11 00:32:56;;;;;;;10.68;4.30;;;;;;;;;;6245588;28;20173;-66
2022/09/11 00:36:00;;;;;;;9.60;4.38;;;;;;;;;;6244873;28;20088;-66
2022/09/11 00:39:01;;;;;;;;;;;;;;;;;;6245809;28;20339;-67
2022/09/11 00:42:04;;;;;;;6.20;4.28;;;;;;;;;;6244310;28;19924;-66
2022/09/11 00:45:22;;;;;;;8.73;4.38;;;;;;;;;;6244809;28;20111;-65
2022/09/11 00:48:28;;;;;;;6.88;4.10;;;;;;;;;;6246052;28;20218;-65
2022/09/11 00:51:33;;;;;;;8.65;4.35;;;;;;;;;;6247474;28;20050;-65
2022/09/11 00:54:42;;;;;;;6.90;3.80;;;;;;;;;;6245526;28;20113;-66
2022/09/11 00:57:47;;;;;;;7.82;4.20;;;;;;;;;;6246274;28;20045;-66
2022/09/11 01:00:49;;;;;;;6.78;4.05;;;;;;;;;;6247628;28;20046;-66
2022/09/11 01:03:52;;;;;;;6.78;4.03;;;;;;;;;;6246847;28;20053;-66
2022/09/11 01:06:56;;;;;;;8.85;3.83;;;;;;;;;;6244661;28;20108;-66
2022/09/11 01:09:58;;;;;;;7.00;3.80;;;;;;;;;;6245414;28;20053;-70
2022/09/11 01:13:07;;;;;;;6.82;4.07;;;;;;;;;;6242711;28;20051;-66
2022/09/11 01:16:13;;;;;;;5.38;3.65;;;;;;;;;;6249612;28;20333;-67
2022/09/11 01:19:41;;;;;;;6.55;3.42;;;;;;;;;;6249343;28;20076;-66
2022/09/11 01:23:13;;;;;;;6.57;3.53;;;;;;;;;;6244631;28;20053;-65
2022/09/11 01:26:51;;;;;;;4.90;3.42;;;;;;;;;;6167894;28;20265;-68
2022/09/11 01:29:58;;;;;;;7.22;4.03;;;;;;;;;;6167249;28;20813;-69
2022/09/11 01:33:11;;;;;;;8.73;3.78;;;;;;;;;;6168510;28;20043;-67
2022/09/11 01:36:17;;;;;;;10.20;4.13;;;;;;;;;;6166727;28;20050;-65
2022/09/11 01:39:20;;;;;;;6.18;3.80;;;;;;;;;;6168198;28;20113;-67
2022/09/11 01:42:22;;;;;;;11.45;4.45;;;;;;;;;;6169358;28;20105;-66
2022/09/11 01:45:26;;;;;;;8.73;5.35;;;;;;;;;;6166167;28;20237;-65
2022/09/11 01:48:31;;;;;;;7.47;4.13;;;;;;;;;;6172894;28;20063;-67
2022/09/11 01:51:35;;;;;;;8.63;4.15;;;;;;;;;;6167382;28;20381;-66
2022/09/11 01:54:42;;;;;;;5.82;3.85;;;;;;;;;;6166130;28;21189;-68
2022/09/11 01:57:45;;;;;;;7.68;4.50;;;;;;;;;;6169693;28;20058;-66
2022/09/11 02:00:51;;;;;;;8.63;4.15;;;;;;;;;;6166752;28;20059;-65
2022/09/11 02:03:56;;;;;;;4.82;3.65;;;;;;;;;;6240463;28;20233;-65
2022/09/11 02:07:02;;;;;;;7.57;4.00;;;;;;;;;;6244105;28;20103;-66
2022/09/11 02:10:09;;;;;;;24.65;5.88;;;;;;;;;;6239893;28;20263;-66
2022/09/11 02:13:13;;;;;;;22.67;5.78;;;;;;;;;;6244946;28;20049;-67
2022/09/11 02:16:20;;;;;;;21.33;5.85;;;;;;;;;;6244484;28;20082;-65
2022/09/11 02:19:25;;;;;;;15.48;4.85;;;;;;;;;;6245019;28;20064;-66
2022/09/11 02:22:26;;;;;;;11.27;4.63;;;;;;;;;;6245402;28;20337;-65
2022/09/11 02:25:28;;;;;;;7.30;4.05;;;;;;;;;;6246334;28;20060;-65
2022/09/11 02:28:30;;;;;;;6.88;4.47;;;;;;;;;;6243965;28;20325;-66
2022/09/11 02:31:33;;;;;;;6.63;3.67;;;;;;;;;;6250850;28;20049;-65
2022/09/11 02:34:36;;;;;;;7.25;4.13;;;;;;;;;;6247812;28;20057;-64
2022/09/11 02:37:42;;;;;;;;;;;;;;;;;;6251781;28;20354;-66
2022/09/11 02:40:47;;;;;;;7.30;3.60;;;;;;;;;;6249971;28;19936;-65
2022/09/11 02:43:56;;;;;;;6.38;3.90;;;;;;;;;;6254721;28;20049;-65
2022/09/11 02:47:07;;;;;;;6.57;4.13;;;;;;;;;;6248447;28;20056;-66
2022/09/11 02:50:17;;;;;;;8.93;4.88;;;;;;;;;;6244068;28;20403;-66
2022/09/11 02:53:23;;;;;;;7.95;4.20;;;;;;;;;;6248822;28;20060;-68
2022/09/11 02:56:31;;;;;;;7.70;4.10;;;;;;;;;;6243637;28;20109;-69
2022/09/11 02:59:37;;;;;;;8.25;4.55;;;;;;;;;;6248970;28;20053;-66
2022/09/11 03:02:42;;;;;;;7.72;4.88;;;;;;;;;;6245091;28;20235;-65
2022/09/11 03:05:43;;;;;;;7.70;4.60;;;;;;;;;;6241149;28;20068;-66
2022/09/11 03:08:45;;;;;;;8.38;5.18;;;;;;;;;;6245501;28;20113;-67
2022/09/11 03:11:47;;;;;;;9.55;5.40;;;;;;;;;;6241473;28;20061;-66
2022/09/11 03:14:48;;;;;;;7.07;4.78;;;;;;;;;;6243698;28;20103;-66
2022/09/11 03:17:51;;;;;;;9.13;5.22;;;;;;;;;;6243971;28;20142;-65
2022/09/11 03:20:53;;;;;;;9.10;4.90;;;;;;;;;;6245111;28;20936;-66
2022/09/11 03:23:55;;;;;;;7.28;4.72;;;;;;;;;;6243976;28;20057;-66
2022/09/11 03:26:57;;;;;;;8.35;5.07;;;;;;;;;;6242822;28;20053;-68
2022/09/11 03:29:59;;;;;;;9.90;5.30;;;;;;;;;;6244315;28;20249;-65
2022/09/11 03:33:02;;;;;;;9.80;5.53;;;;;;;;;;6245087;28;20123;-66
2022/09/11 03:36:04;;;;;;;11.43;5.57;;;;;;;;;;6241522;28;21579;-65
2022/09/11 03:39:05;;;;;;;8.13;5.40;;;;;;;;;;6242329;28;20057;-67
2022/09/11 03:42:11;;;;;;;8.68;5.28;;;;;;;;;;6243732;28;20050;-66
2022/09/11 03:45:13;;;;;;;9.02;5.43;;;;;;;;;;6243230;28;20287;-65
2022/09/11 03:48:16;;;;;;;10.45;5.60;;;;;;;;;;6240305;28;20053;-65
2022/09/11 03:51:17;;;;;;;8.55;5.03;;;;;;;;;;6244536;28;20057;-67
2022/09/11 03:54:19;;;;;;;6.97;4.72;;;;;;;;;;6242865;28;20071;-66
2022/09/11 03:57:21;;;;;;;8.27;4.90;;;;;;;;;;6243559;28;20049;-65
2022/09/11 04:00:23;;;;;;;7.22;4.82;;;;;;;;;;6240848;28;20056;-65
2022/09/11 04:03:26;;;;;;;8.15;4.53;;;;;;;;;;6242784;28;20275;-66
2022/09/11 04:06:27;;;;;;;7.55;4.60;;;;;;;;;;6246089;28;20053;-66
2022/09/11 04:09:30;;;;;;;7.00;4.15;;;;;;;;;;6241904;28;20213;-66
2022/09/11 04:12:32;;;;;;;5.13;4.03;;;;;;;;;;6243555;28;20243;-66
2022/09/11 04:15:34;;;;;;;5.47;3.70;;;;;;;;;;6243776;28;20060;-65
2022/09/11 04:18:38;;;;;;;8.43;4.65;;;;;;;;;;6244295;28;20360;-68
2022/09/11 04:21:41;;;;;;;5.78;3.95;;;;;;;;;;6243429;28;20053;-65
2022/09/11 04:24:42;;;;;;;6.55;3.75;;;;;;;;;;6243096;28;20057;-66
2022/09/11 04:27:44;;;;;;;9.38;4.40;;;;;;;;;;6243246;28;20053;-65
2022/09/11 04:30:45;;;;;;;5.95;3.33;;;;;;;;;;6242560;28;20057;-65
2022/09/11 04:33:49;;;;;;;4.53;3.15;;;;;;;;;;6242768;28;20454;-66
2022/09/11 04:36:50;;;;;;;5.78;3.50;;;;;;;;;;6244064;28;20042;-65
2022/09/11 04:39:53;;;;;;;4.53;3.50;;;;;;;;;;6243271;28;22339;-66
2022/09/11 04:42:54;;;;;;;7.13;3.67;;;;;;;;;;6240193;28;20355;-65
2022/09/11 04:46:00;;;;;;;5.30;3.63;;;;;;;;;;6243518;28;20045;-65
2022/09/11 04:49:03;;;;;;;5.45;3.42;;;;;;;;;;6242630;28;20244;-68
2022/09/11 04:52:06;;;;;;;8.05;3.80;;;;;;;;;;6243970;28;20053;-66
2022/09/11 04:55:08;;;;;;;5.27;3.53;;;;;;;;;;6241514;28;20076;-68
2022/09/11 04:58:10;;;;;;;5.75;3.28;;;;;;;;;;6243292;28;20053;-66
2022/09/11 05:01:13;;;;;;;6.32;3.60;;;;;;;;;;6239552;28;20324;-70
2022/09/11 05:04:17;;;;;;;8.13;3.85;;;;;;;;;;6241207;28;20370;-67
2022/09/11 05:07:19;;;;;;;6.28;3.70;;;;;;;;;;6242961;28;20117;-66
2022/09/11 05:10:20;;;;;;;6.32;3.92;;;;;;;;;;6242145;28;20317;-65
2022/09/11 05:13:22;;;;;;;4.85;3.95;;;;;;;;;;6242657;28;20048;-66
2022/09/11 05:16:25;;;;;;;6.88;4.72;;;;;;;;;;6239517;28;20366;-65
2022/09/11 05:19:28;;;;;;;7.03;4.40;;;;;;;;;;6242659;28;20401;-65
2022/09/11 05:22:30;;;;;;;9.18;4.53;;;;;;;;;;6240196;28;20072;-65
2022/09/11 05:25:31;;;;;;;6.25;4.22;;;;;;;;;;6241029;28;20114;-65
2022/09/11 05:28:33;;;;;;;6.25;4.45;;;;;;;;;;6239607;28;20070;-66
2022/09/11 05:31:35;;;;;;;6.28;4.75;;;;;;;;;;6239651;28;20291;-65
2022/09/11 05:34:39;;;;;;;5.68;4.50;;;;;;;;;;6240982;28;20348;-64
2022/09/11 05:37:40;;;;;;;5.97;4.90;;;;;;;;;;6240296;28;20244;-67
2022/09/11 05:40:44;;;;;;;7.32;4.72;;;;;;;;;;6239609;28;20172;-66
2022/09/11 05:43:46;;;;;;;6.18;4.65;;;;;;;;;;6240237;28;20053;-65
2022/09/11 05:46:48;;;;;;;7.65;5.18;;;;;;;;;;6240528;28;20053;-66
2022/09/11 05:49:51;;;;;;;8.45;5.90;;;;;;;;;;6240624;28;20077;-67
2022/09/11 05:52:53;;;;;;;8.73;5.57;;;;;;;;;;6237073;28;20053;-65
2022/09/11 05:55:55;;;;;;;7.60;6.10;;;;;;;;;;6238964;28;20085;-65
2022/09/11 05:58:57;;;;;;;8.20;6.90;;;;;;;;;;6238848;28;20061;-66
2022/09/11 06:01:59;;;;;;;7.80;5.97;;;;;;;;;;6242088;28;20333;-67
2022/09/11 06:05:02;;;;;;;8.13;6.78;;;;;;;;;;6238722;28;20062;-69
2022/09/11 06:08:03;;;;;;;9.77;6.75;;;;;;;;;;6241176;28;20053;-66
2022/09/11 06:11:06;;;;;;;7.95;6.90;;;;;;;;;;6240244;28;20038;-67
2022/09/11 06:14:08;;;;;;;10.77;6.07;;;;;;;;;;6239362;28;20074;-69
2022/09/11 06:17:11;;;;;;;6.53;5.38;;;;;;;;;;6243412;28;20065;-65
2022/09/11 06:20:14;;;;;;;9.50;4.45;;;;;;;;;;6240211;28;20060;-65
2022/09/11 06:23:15;;;;;;;8.40;5.13;;;;;;;;;;6240633;28;20090;-66
2022/09/11 06:26:20;;;;;;;6.03;4.13;;;;;;;;;;6237473;28;20160;-66
2022/09/11 06:29:21;;;;;;;6.68;4.03;;;;;;;;;;6241227;28;20117;-67
2022/09/11 06:32:23;;;;;;;4.97;3.65;;;;;;;;;;6242648;28;20238;-64
2022/09/11 06:35:27;;;;;;;5.55;4.15;;;;;;;;;;6239816;28;20069;-66
2022/09/11 06:38:28;;;;;;;8.00;5.45;;;;;;;;;;6240078;28;20095;-64
2022/09/11 06:41:31;;;;;;;5.28;4.15;;;;;;;;;;6239217;28;20054;-64
2022/09/11 06:44:33;;;;;;;5.50;3.88;;;;;;;;;;6238031;28;20065;-66
2022/09/11 06:47:35;;;;;;;5.18;3.88;;;;;;;;;;6240559;28;20065;-65
2022/09/11 06:50:39;;;;;;;5.65;4.40;;;;;;;;;;6246098;28;20099;-66
2022/09/11 06:53:40;;;;;;;4.22;3.70;;;;;;;;;;6245607;28;20054;-63
2022/09/11 06:56:44;;;;;;;4.43;3.55;;;;;;;;;;6243957;28;20049;-69
2022/09/11 06:59:46;;;;;;;7.15;4.18;;;;;;;;;;6247093;28;20050;-66
2022/09/11 07:02:47;;;;;;;206.95;15.60;;;;;;;;;;6240448;28;20049;-66
2022/09/11 07:05:50;;;;;;;7.25;3.90;;;;;;;;;;6242579;28;20068;-68
2022/09/11 07:08:54;;;;;;;6.68;3.95;;;;;;;;;;6243481;28;20057;-70
2022/09/11 07:11:56;;;;;;;4.85;3.55;;;;;;;;;;6243752;28;20049;-66
2022/09/11 07:14:58;;;;;;;6.60;3.97;;;;;;;;;;6247612;28;20269;-69
2022/09/11 07:18:00;;;;;;;3.90;3.45;;;;;;;;;;6245210;28;20056;-67
2022/09/11 07:21:06;;;;;;;3.88;3.08;;;;;;;;;;6245294;28;20053;-67
2022/09/11 07:24:09;;;;;;;5.57;3.58;;;;;;;;;;6243865;28;20075;-67
2022/09/11 07:27:12;;;;;;;5.75;3.40;;;;;;;;;;6246418;28;20053;-67
2022/09/11 07:30:14;;;;;;;;;;;;;;;;;;6243640;28;20105;-68
2022/09/11 07:33:15;;;;;;;3.90;3.38;;;;;;;;;;6243297;28;20107;-67
2022/09/11 07:36:20;;;;;;;5.03;3.75;;;;;;;;;;6245133;28;20103;-68
2022/09/11 07:39:21;;;;;;;5.43;4.25;;;;;;;;;;6240717;28;20057;-69
2022/09/11 07:42:23;;;;;;;3.67;3.05;;;;;;;;;;6242808;28;20073;-67
2022/09/11 07:45:26;;;;;;;4.82;3.17;;;;;;;;;;6246442;28;20061;-69
2022/09/11 07:48:29;;;;;;;3.13;2.50;;;;;;;;;;6248435;28;20095;-68
2022/09/11 07:51:33;;;;;;;4.20;2.53;;;;;;;;;;6245267;28;20057;-69
2022/09/11 07:54:35;;;;;;;4.13;3.10;;;;;;;;;;6244559;28;20095;-70
2022/09/11 07:57:37;;;;;;;5.68;2.42;;;;;;;;;;6243531;28;20060;-68
2022/09/11 08:00:38;;;;;;;3.88;2.63;;;;;;;;;;6245715;28;20076;-68
2022/09/11 08:03:41;;;;;;;4.47;2.60;;;;;;;;;;6247819;28;20049;-68
2022/09/11 08:06:44;;;;;;;2.85;2.30;;;;;;;;;;6249238;28;20080;-69
2022/09/11 08:09:46;;;;;;;;;;;;;;;;;;6243131;28;20049;-71
2022/09/11 08:12:47;;;;;;;3.58;2.25;;;;;;;;;;6245395;28;19939;-68
2022/09/11 08:15:50;;;;;;;3.85;2.03;;;;;;;;;;6243026;28;20324;-69
2022/09/11 08:18:52;;;;;;;3.67;2.40;;;;;;;;;;6245030;28;20104;-69
2022/09/11 08:21:55;;;;;;;2.17;1.70;;;;;;;;;;6246248;28;20329;-69
2022/09/11 08:24:56;;;;;;;;;;;;;;;;;;6244015;28;20054;-69
2022/09/11 08:27:58;;;;;;;2.03;1.70;;;;;;;;;;6244073;28;19925;-70
2022/09/11 08:31:00;;;;;;;2.78;1.90;;;;;;;;;;6241231;28;20083;-70
2022/09/11 08:34:02;;;;;;;3.60;2.00;;;;;;;;;;6246024;28;20120;-69
2022/09/11 08:37:05;;;;;;;2.42;1.75;;;;;;;;;;6243454;28;20053;-69
2022/09/11 08:40:10;;;;;;;2.55;1.85;;;;;;;;;;6245990;28;20057;-69
2022/09/11 08:43:19;;;;;;;2.85;1.42;;;;;;;;;;6248819;28;20057;-69
2022/09/11 08:46:23;;;;;;;2.42;1.48;;;;;;;;;;6246870;28;20045;-69
2022/09/11 08:49:26;;;;;;;4.47;1.70;;;;;;;;;;6247730;28;20064;-69
2022/09/11 08:52:31;;;;;;;2.85;1.67;;;;;;;;;;6246843;28;20329;-70
2022/09/11 08:55:36;;;;;;;3.45;1.58;;;;;;;;;;6244773;28;20053;-69
2022/09/11 08:58:44;;;;;;;3.40;1.90;;;;;;;;;;6228659;28;20063;-69
2022/09/11 09:01:51;;;;;;;2.05;1.38;;;;;;;;;;6233453;28;20129;-68
2022/09/11 09:05:05;;;;;;;2.33;0.93;;;;;;;;;;6241108;28;20064;-68
2022/09/11 09:08:11;;;;;;;;;;;;;;;;;;6244649;28;20345;-68
2022/09/11 09:11:21;;;;;;;3.17;1.13;;;;;;;;;;6238333;28;19921;-66
2022/09/11 09:14:35;;;;;;;2.35;0.90;;;;;;;;;;6246237;28;20053;-64
2022/09/11 09:17:40;;;;;;;1.35;0.88;;;;;;;;;;6241510;28;21591;-64
2022/09/11 09:20:45;;;;;;;1.60;1.10;;;;;;;;;;6241248;28;20332;-63
2022/09/11 09:23:52;;;;;;;1.88;0.98;;;;;;;;;;6240623;28;20068;-63
2022/09/11 09:26:56;;;;;;;2.33;1.10;;;;;;;;;;6246077;28;20104;-66
2022/09/11 09:29:59;;;;;;;3.35;1.65;;;;;;;;;;6242124;28;20386;-65
2022/09/11 09:33:11;;;;;;;3.80;2.05;;;;;;;;;;6243806;28;20371;-66
2022/09/11 09:36:16;;;;;;;2.03;1.38;;;;;;;;;;6243075;28;20080;-67
2022/09/11 09:39:21;;;;;;;3.15;1.42;;;;;;;;;;6240634;28;20339;-64
2022/09/11 09:42:40;;;;;;;3.53;1.75;;;;;;;;;;6241600;28;20062;-66
2022/09/11 09:45:50;;;;;;;2.22;1.40;;;;;;;;;;6240812;28;20041;-66
2022/09/11 09:48:52;;;;;;;3.75;1.70;;;;;;;;;;6240612;28;20144;-68
2022/09/11 09:51:55;;;;;;;4.40;1.97;;;;;;;;;;6239813;28;20064;-67
2022/09/11 09:55:00;;;;;;;2.67;1.33;;;;;;;;;;6239944;28;20103;-66
2022/09/11 09:58:02;;;;;;;1.95;1.52;;;;;;;;;;6239496;28;20050;-69
2022/09/11 10:01:07;;;;;;;3.33;2.10;;;;;;;;;;6237632;28;20055;-69
2022/09/11 10:04:11;;;;;;;3.92;1.73;;;;;;;;;;6235586;28;20053;-66
2022/09/11 10:07:17;;;;;;;2.33;1.90;;;;;;;;;;6238448;28;20080;-66
2022/09/11 10:10:26;;;;;;;3.38;1.85;;;;;;;;;;6238035;28;20057;-68
2022/09/11 10:13:29;;;;;;;4.80;1.90;;;;;;;;;;6241276;28;20060;-66
2022/09/11 10:16:31;;;;;;;3.55;1.70;;;;;;;;;;6241909;28;20045;-66
2022/09/11 10:19:38;;;;;;;2.80;1.85;;;;;;;;;;6242083;28;20061;-67
2022/09/11 10:22:40;;;;;;;2.38;1.45;;;;;;;;;;6239388;28;20114;-67
2022/09/11 10:25:46;;;;;;;2.13;1.48;;;;;;;;;;6240826;28;20709;-67
2022/09/11 10:28:48;;;;;;;2.53;1.50;;;;;;;;;;6245303;28;20316;-66
2022/09/11 10:31:51;;;;;;;2.25;1.52;;;;;;;;;;6244742;28;20369;-66
2022/09/11 10:34:53;;;;;;;2.03;1.50;;;;;;;;;;6243337;28;20041;-65
2022/09/11 10:38:11;;;;;;;2.72;1.70;;;;;;;;;;6237699;28;20117;-65
2022/09/11 10:41:18;;;;;;;2.85;1.70;;;;;;;;;;6243686;28;20057;-67
2022/09/11 10:44:23;;;;;;;1.92;1.40;;;;;;;;;;6245343;28;20061;-66
2022/09/11 10:47:26;;;;;;;2.38;1.58;;;;;;;;;;6245822;28;20202;-66
2022/09/11 10:50:28;;;;;;;4.70;1.70;;;;;;;;;;6244045;28;20046;-66
2022/09/11 10:53:34;;;;;;;1.83;1.17;;;;;;;;;;6246847;28;20072;-68
2022/09/11 10:56:41;;;;;;;1.70;1.20;;;;;;;;;;6242951;28;20205;-68
2022/09/11 10:59:50;;;;;;;4.38;1.45;;;;;;;;;;6248623;28;20291;-67
2022/09/11 11:02:54;;;;;;;3.58;1.50;;;;;;;;;;6247600;28;20057;-66
2022/09/11 11:06:05;;;;;;;4.68;1.85;;;;;;;;;;6250703;28;20061;-67
2022/09/11 11:09:20;;;;;;;3.07;1.23;;;;;;;;;;6249080;28;20069;-68
2022/09/11 11:12:40;;;;;;;1.33;1.02;;;;;;;;;;6252973;28;20095;-67
2022/09/11 11:15:49;;;;;;;2.78;1.10;;;;;;;;;;6252525;28;20046;-67
2022/09/11 11:19:02;;;;;;;3.17;1.58;;;;;;;;;;6253684;28;20079;-67
2022/09/11 11:22:12;;;;;;;2.70;1.50;;;;;;;;;;6249474;28;20069;-67
2022/09/11 11:25:17;;;;;;;1.92;1.27;;;;;;;;;;6253471;28;20041;-68
2022/09/11 11:28:28;;;;;;;1.92;1.17;;;;;;;;;;6250981;28;20064;-68
2022/09/11 11:31:42;;;;;;;1.35;1.10;;;;;;;;;;6250241;28;20103;-65
2022/09/11 11:35:00;;;;;;;1.73;1.17;;;;;;;;;;6251052;28;20120;-67
2022/09/11 11:38:03;;;;;;;1.80;1.50;;;;;;;;;;6249640;28;20054;-67
2022/09/11 11:41:07;;;;;;;2.97;1.55;;;;;;;;;;6251884;28;20088;-66
2022/09/11 11:44:15;;;;;;;2.15;1.52;;;;;;;;;;6246549;28;20708;-67
2022/09/11 11:47:18;;;;;;;1.20;1.10;;;;;;;;;;6252520;28;20049;-66
2022/09/11 11:50:25;;;;;;;3.08;1.42;;;;;;;;;;6243136;28;20108;-67
2022/09/11 11:53:30;;;;;;;4.47;1.45;;;;;;;;;;6251078;28;20046;-67
2022/09/11 11:56:35;;;;;;;2.75;1.25;;;;;;;;;;6251126;28;20041;-67
2022/09/11 11:59:44;;;;;;;2.15;1.33;;;;;;;;;;6247428;28;20269;-67
2022/09/11 12:02:51;;;;;;;2.33;1.40;;;;;;;;;;6251664;28;20049;-67
2022/09/11 12:05:53;;;;;;;1.83;1.10;;;;;;;;;;6247197;28;20054;-67
2022/09/11 12:08:55;;;;;;;1.27;1.10;;;;;;;;;;6248827;28;20275;-67
2022/09/11 12:11:57;;;;;;;1.73;1.17;;;;;;;;;;6248530;28;20115;-68
2022/09/11 12:15:05;;;;;;;2.28;1.02;;;;;;;;;;6249308;28;20325;-68
2022/09/11 12:18:20;;;;;;;1.80;0.95;;;;;;;;;;6248654;28;20304;-68
2022/09/11 12:21:42;;;;;;;1.85;1.20;;;;;;;;;;6245403;28;20045;-68
2022/09/11 12:24:57;;;;;;;2.25;1.20;;;;;;;;;;6247433;28;20335;-68
2022/09/11 12:28:10;;;;;;;2.05;1.30;;;;;;;;;;6247130;28;20083;-69
2022/09/11 12:31:14;;;;;;;1.65;1.10;;;;;;;;;;6247356;28;20136;-67
2022/09/11 12:34:17;;;;;;;1.88;1.15;;;;;;;;;;6250175;28;20151;-68
2022/09/11 12:37:24;;;;;;;1.42;1.00;;;;;;;;;;6246739;28;20115;-67
2022/09/11 12:40:32;;;;;;;2.63;1.00;;;;;;;;;;6248336;28;20116;-67
2022/09/11 12:43:48;;;;;;;2.72;1.38;;;;;;;;;;6247536;28;20053;-65
2022/09/11 12:47:17;;;;;;;2.53;1.30;;;;;;;;;;6248609;28;20111;-65
2022/09/11 12:50:19;;;;;;;1.42;1.27;;;;;;;;;;6245822;28;20069;-65
2022/09/11 12:53:24;;;;;;;4.07;1.20;;;;;;;;;;6251296;28;20041;-67
2022/09/11 12:56:28;;;;;;;2.45;1.20;;;;;;;;;;6247304;28;20049;-65
2022/09/11 12:59:32;;;;;;;1.27;1.10;;;;;;;;;;6250277;28;20053;-64
2022/09/11 13:02:37;;;;;;;2.03;1.17;;;;;;;;;;6246483;28;20076;-65
2022/09/11 13:05:40;;;;;;;0.90;0.80;;;;;;;;;;6245445;28;20053;-64
2022/09/11 13:08:46;;;;;;;1.50;1.17;;;;;;;;;;6243037;28;20056;-64
2022/09/11 13:11:49;;;;;;;1.63;1.20;;;;;;;;;;6250983;28;20265;-64
2022/09/11 13:14:51;;;;;;;2.58;1.02;;;;;;;;;;6249113;28;20049;-64
2022/09/11 13:17:54;;;;;;;3.35;1.02;;;;;;;;;;6249354;28;20351;-64
2022/09/11 13:21:00;;;;;;;1.88;1.00;;;;;;;;;;6243562;28;20057;-65
2022/09/11 13:24:02;;;;;;;1.58;1.00;;;;;;;;;;6248388;28;20150;-66
2022/09/11 13:27:07;;;;;;;3.90;0.93;;;;;;;;;;6244287;28;20058;-65
2022/09/11 13:30:12;;;;;;;3.05;1.15;;;;;;;;;;6247779;28;20112;-66
2022/09/11 13:33:19;;;;;;;1.33;1.00;;;;;;;;;;6248646;28;20053;-65
2022/09/11 13:36:23;;;;;;;1.05;0.80;;;;;;;;;;6247239;28;20194;-65
2022/09/11 13:39:25;;;;;;;2.13;0.82;;;;;;;;;;6242129;28;20049;-68
2022/09/11 13:42:28;;;;;;;1.98;0.90;;;;;;;;;;6247008;28;20329;-66
2022/09/11 13:45:30;;;;;;;1.90;1.00;;;;;;;;;;6247665;28;20053;-66
2022/09/11 13:48:33;;;;;;;;;;;;;;;;;;6249700;28;20328;-65
2022/09/11 13:51:45;;;;;;;2.92;0.90;;;;;;;;;;6245577;28;19928;-66
2022/09/11 13:54:49;;;;;;;2.38;1.02;;;;;;;;;;6245449;28;20065;-65
2022/09/11 13:57:53;;;;;;;2.40;0.90;;;;;;;;;;6245701;28;20054;-66
2022/09/11 14:00:55;;;;;;;1.98;0.90;;;;;;;;;;6245368;28;20049;-65
2022/09/11 14:03:58;;;;;;;;;;;;;;;;;;6245512;28;20057;-66
2022/09/11 14:06:59;;;;;;;1.02;0.80;;;;;;;;;;6246636;28;20208;-65
2022/09/11 14:10:04;;;;;;;1.15;0.90;;;;;;;;;;6245790;28;20065;-68
2022/09/11 14:13:13;;;;;;;4.38;1.10;;;;;;;;;;6244896;28;20053;-66
2022/09/11 14:16:22;;;;;;;2.38;1.25;;;;;;;;;;6237634;28;20124;-66
2022/09/11 14:19:28;;;;;;;4.13;1.40;;;;;;;;;;6246502;28;20291;-65
2022/09/11 14:22:30;;;;;;;1.88;1.10;;;;;;;;;;6249320;28;20264;-65
2022/09/11 14:25:32;;;;;;;1.65;1.00;;;;;;;;;;6246903;28;20092;-65
2022/09/11 14:28:43;;;;;;;2.38;0.90;;;;;;;;;;6244085;28;20057;-67
2022/09/11 14:31:44;;;;;;;2.22;1.10;;;;;;;;;;6245857;28;20052;-67
2022/09/11 14:34:47;;;;;;;2.25;0.90;;;;;;;;;;6244476;28;20152;-67
2022/09/11 14:37:49;;;;;;;0.73;0.70;;;;;;;;;;6248624;28;20332;-67
2022/09/11 14:40:55;;;;;;;1.02;0.80;;;;;;;;;;6247157;28;20343;-67
2022/09/11 14:43:57;;;;;;;1.35;0.90;;;;;;;;;;6246555;28;20076;-65
2022/09/11 14:46:59;;;;;;;1.00;0.90;;;;;;;;;;6244969;28;20049;-67
2022/09/11 14:50:04;;;;;;;1.00;0.75;;;;;;;;;;6246054;28;20061;-69
2022/09/11 14:53:05;;;;;;;2.88;0.90;;;;;;;;;;6242302;28;20145;-66
2022/09/11 14:56:08;;;;;;;;;;;;;;;;;;6244450;28;20257;-65
2022/09/11 14:59:11;;;;;;;5.55;1.52;;;;;;;;;;6248462;28;20266;-66
2022/09/11 15:02:13;;;;;;;2.17;1.00;;;;;;;;;;6246889;28;20126;-68
2022/09/11 15:05:20;;;;;;;2.88;0.80;;;;;;;;;;6245829;28;20273;-68
2022/09/11 15:08:22;;;;;;;2.08;0.77;;;;;;;;;;6242068;28;20050;-69
2022/09/11 15:11:25;;;;;;;1.95;0.88;;;;;;;;;;6242287;28;20053;-68
2022/09/11 15:14:26;;;;;;;1.58;0.80;;;;;;;;;;6244598;28;20108;-70
2022/09/11 15:17:30;;;;;;;1.95;0.88;;;;;;;;;;6246955;28;20107;-70
2022/09/11 15:20:33;;;;;;;1.20;0.88;;;;;;;;;;6241043;28;20218;-68
2022/09/11 15:23:34;;;;;;;1.23;0.90;;;;;;;;;;6241951;28;20333;-68
2022/09/11 15:26:36;;;;;;;1.33;0.85;;;;;;;;;;6245782;28;20244;-70
2022/09/11 15:29:38;;;;;;;1.55;0.90;;;;;;;;;;6247629;28;20054;-68
2022/09/11 15:32:40;;;;;;;2.25;0.85;;;;;;;;;;6247029;28;20118;-68
2022/09/11 15:35:43;;;;;;;;;;;;;;;;;;6255146;28;20057;-69
2022/09/11 15:38:51;;;;;;;3.25;1.00;;;;;;;;;;6251396;28;19925;-70
2022/09/11 15:41:55;;;;;;;2.95;0.82;;;;;;;;;;6250460;28;20116;-69
2022/09/11 15:44:56;;;;;;;2.15;0.90;;;;;;;;;;6244111;28;20112;-69
2022/09/11 15:47:59;;;;;;;1.20;1.00;;;;;;;;;;6243818;28;20114;-68
2022/09/11 15:51:03;;;;;;;3.33;1.10;;;;;;;;;;6242583;28;20308;-68
2022/09/11 15:54:05;;;;;;;2.70;0.70;;;;;;;;;;6242486;28;20100;-68
2022/09/11 15:57:07;;;;;;;2.55;1.00;;;;;;;;;;6244627;28;20061;-68
2022/09/11 16:00:09;;;;;;;;;;;;;;;;;;6242454;28;20389;-69
2022/09/11 16:03:11;;;;;;;1.83;0.90;;;;;;;;;;6245502;28;19925;-69
2022/09/11 16:06:14;;;;;;;1.13;0.77;;;;;;;;;;6242519;28;20328;-68
2022/09/11 16:09:17;;;;;;;2.75;0.80;;;;;;;;;;6244209;28;20053;-68
2022/09/11 16:12:18;;;;;;;3.50;0.93;;;;;;;;;;6241944;28;20061;-68
2022/09/11 16:15:21;;;;;;;3.63;0.90;;;;;;;;;;6243566;28;20367;-68
2022/09/11 16:18:22;;;;;;;;;;;;;;;;;;6244237;28;20064;-68
2022/09/11 16:21:27;;;;;;;8.15;0.95;;;;;;;;;;6244785;28;19921;-68
2022/09/11 16:24:30;;;;;;;2.88;1.08;;;;;;;;;;6242856;28;20059;-68
2022/09/11 16:27:33;;;;;;;2.75;0.68;;;;;;;;;;6244170;28;20049;-68
2022/09/11 16:30:40;;;;;;;12.63;8.20;;;;;;;;;;6244773;28;20042;-68
2022/09/11 16:33:45;;;;;;;44.38;30.63;;;;;;;;;;6245788;28;20057;-67
2022/09/11 16:36:47;;;;;;;9.07;1.77;;;;;;;;;;6241788;28;20068;-67
2022/09/11 16:39:49;;;;;;;51.95;28.10;;;;;;;;;;6243537;28;20068;-69
2022/09/11 16:42:51;;;;;;;4.90;1.08;;;;;;;;;;6243111;28;20057;-68
2022/09/11 16:45:53;;;;;;;5.35;1.30;;;;;;;;;;6245244;28;20053;-68
2022/09/11 16:48:55;;;;;;;1.17;0.80;;;;;;;;;;6242389;28;20113;-68
2022/09/11 16:52:01;;;;;;;1.90;1.10;;;;;;;;;;6242454;28;20148;-67
2022/09/11 16:55:02;;;;;;;0.80;0.70;;;;;;;;;;6246899;28;20056;-68
2022/09/11 16:58:04;;;;;;;4.30;1.10;;;;;;;;;;6243149;28;20418;-67
2022/09/11 17:01:06;;;;;;;2.00;0.90;;;;;;;;;;6241843;28;20076;-67
2022/09/11 17:04:08;;;;;;;5.65;1.00;;;;;;;;;;6242477;28;20068;-67
2022/09/11 17:07:11;;;;;;;2.13;0.80;;;;;;;;;;6243924;28;20272;-67
2022/09/11 17:10:13;;;;;;;2.25;0.90;;;;;;;;;;6242533;28;20068;-67
2022/09/11 17:13:14;;;;;;;2.75;0.90;;;;;;;;;;6238999;28;20045;-68
2022/09/11 17:16:18;;;;;;;2.50;1.00;;;;;;;;;;6240169;28;20339;-67
2022/09/11 17:19:19;;;;;;;2.42;0.73;;;;;;;;;;6243831;28;20239;-67
2022/09/11 17:22:22;;;;;;;4.47;1.92;;;;;;;;;;6239791;28;20280;-67
2022/09/11 17:25:24;;;;;;;3.55;1.48;;;;;;;;;;6240626;28;20424;-67
2022/09/11 17:28:26;;;;;;;4.25;1.20;;;;;;;;;;6238731;28;20245;-68
2022/09/11 17:31:28;;;;;;;6.10;2.50;;;;;;;;;;6240662;28;20248;-68
2022/09/11 17:34:30;;;;;;;2.97;0.95;;;;;;;;;;6237707;28;20457;-67
2022/09/11 17:37:33;;;;;;;3.03;1.27;;;;;;;;;;6241902;28;20098;-67
2022/09/11 17:40:36;;;;;;;2.28;1.65;;;;;;;;;;6241122;28;20244;-69
2022/09/11 17:43:39;;;;;;;2.13;0.90;;;;;;;;;;6238852;28;20124;-68
2022/09/11 17:46:40;;;;;;;1.83;1.10;;;;;;;;;;6240849;28;20049;-67
2022/09/11 17:49:42;;;;;;;2.10;1.20;;;;;;;;;;6241092;28;20056;-66
2022/09/11 17:52:45;;;;;;;3.30;1.20;;;;;;;;;;6239742;28;20117;-67
2022/09/11 17:55:46;;;;;;;;;;;;;;;;;;6240128;28;20111;-68
2022/09/11 17:58:50;;;;;;;3.55;1.50;;;;;;;;;;6240249;28;20139;-68
2022/09/11 18:01:52;;;;;;;2.40;1.40;;;;;;;;;;6244481;28;20144;-68
2022/09/11 18:04:53;;;;;;;3.13;1.00;;;;;;;;;;6244742;28;20112;-69
2022/09/11 18:07:59;;;;;;;1.63;1.13;;;;;;;;;;6246090;28;20272;-68
2022/09/11 18:11:01;;;;;;;4.88;1.75;;;;;;;;;;6245151;28;20038;-69
2022/09/11 18:14:03;;;;;;;3.50;1.42;;;;;;;;;;6245797;28;20064;-67
2022/09/11 18:17:05;;;;;;;1.50;1.30;;;;;;;;;;6244570;28;20081;-67
2022/09/11 18:20:08;;;;;;;2.55;1.60;;;;;;;;;;6245077;28;20237;-66
2022/09/11 18:23:12;;;;;;;5.22;2.33;;;;;;;;;;6244673;28;20049;-69
2022/09/11 18:26:21;;;;;;;2.65;1.35;;;;;;;;;;6240175;28;20050;-67
2022/09/11 18:29:23;;;;;;;4.45;1.48;;;;;;;;;;6243541;28;20093;-65